CPA173 VHHH-YPAD
Flight info
| Callsign | CPA173 |
|---|---|
| Flight time | N/A |
| Altitude | 36000 |
| Route | DALOL V652 SABNO/N0496F350 A583 TOKON/N0496F370 A583 ZAM A461 OCTOB/N0486F390 A461 AS J251 WHA H84 AD |
| Aircraft | A359/H-SDE2E3GHIJ3J4J5LM1ORWXY/LB1D1 |
Departure
| Time | 2026-05-05 18:28 |
|---|---|
| Airport | Hong Kong International Airport (VHHH) |
Arrival
| Time | N/A |
|---|---|
| Airport | Adelaide International Airport (YPAD) |
| Time | Latitude | Longitude | Altitude | Speed | Heading |
|---|---|---|---|---|---|
| 2026-05-05 18:00 | 22.31529 | 113.92296 | 39 ft | 0 kts | 128° |
| 2026-05-05 18:17 | 22.31530 | 113.92295 | 38 ft | 1 kts | 128° |
| 2026-05-05 18:17 | 22.31545 | 113.92275 | 37 ft | 4 kts | 128° |
| 2026-05-05 18:17 | 22.31559 | 113.92255 | 38 ft | 4 kts | 137° |
| 2026-05-05 18:18 | 22.31580 | 113.92243 | 38 ft | 4 kts | 186° |
| 2026-05-05 18:18 | 22.31602 | 113.92253 | 38 ft | 4 kts | 234° |
| 2026-05-05 18:18 | 22.31613 | 113.92279 | 38 ft | 4 kts | 251° |
| 2026-05-05 18:18 | 22.31622 | 113.92306 | 38 ft | 4 kts | 251° |
| 2026-05-05 18:19 | 22.31624 | 113.92312 | 38 ft | 0 kts | 251° |
| 2026-05-05 18:21 | 22.31608 | 113.92268 | 38 ft | 9 kts | 248° |
| 2026-05-05 18:21 | 22.31585 | 113.92202 | 38 ft | 12 kts | 252° |
| 2026-05-05 18:22 | 22.31556 | 113.92104 | 38 ft | 16 kts | 252° |
| 2026-05-05 18:22 | 22.31515 | 113.91973 | 37 ft | 19 kts | 251° |
| 2026-05-05 18:22 | 22.31472 | 113.91836 | 38 ft | 19 kts | 251° |
| 2026-05-05 18:22 | 22.31427 | 113.91698 | 37 ft | 20 kts | 251° |
| 2026-05-05 18:23 | 22.31383 | 113.91557 | 38 ft | 20 kts | 251° |
| 2026-05-05 18:23 | 22.31338 | 113.91416 | 38 ft | 20 kts | 251° |
| 2026-05-05 18:23 | 22.31289 | 113.91273 | 38 ft | 20 kts | 249° |
| 2026-05-05 18:23 | 22.31239 | 113.91129 | 38 ft | 21 kts | 249° |
| 2026-05-05 18:24 | 22.31189 | 113.90983 | 38 ft | 21 kts | 250° |
| 2026-05-05 18:24 | 22.31142 | 113.90834 | 38 ft | 21 kts | 251° |
| 2026-05-05 18:24 | 22.31096 | 113.90684 | 38 ft | 21 kts | 252° |
| 2026-05-05 18:24 | 22.31048 | 113.90529 | 38 ft | 22 kts | 251° |
| 2026-05-05 18:25 | 22.31002 | 113.90377 | 38 ft | 22 kts | 251° |
| 2026-05-05 18:25 | 22.30968 | 113.90274 | 38 ft | 22 kts | 250° |
| 2026-05-05 18:25 | 22.30902 | 113.90081 | 38 ft | 16 kts | 250° |
| 2026-05-05 18:25 | 22.30870 | 113.89977 | 38 ft | 14 kts | 260° |
| 2026-05-05 18:26 | 22.30925 | 113.89910 | 38 ft | 13 kts | 345° |
| 2026-05-05 18:26 | 22.31015 | 113.89883 | 37 ft | 14 kts | 344° |
| 2026-05-05 18:26 | 22.31103 | 113.89860 | 36 ft | 10 kts | 17° |
| 2026-05-05 18:26 | 22.31132 | 113.89921 | 36 ft | 9 kts | 71° |
| 2026-05-05 18:27 | 22.31155 | 113.89993 | 36 ft | 13 kts | 71° |
| 2026-05-05 18:27 | 22.31224 | 113.90208 | 37 ft | 58 kts | 70° |
| 2026-05-05 18:27 | 22.31419 | 113.90813 | 38 ft | 111 kts | 71° |
| 2026-05-05 18:27 | 22.31726 | 113.91763 | 39 ft | 156 kts | 70° |
| 2026-05-05 18:28 | 22.32504 | 113.94032 | 1226 ft | 142 kts | 70° |
| 2026-05-05 18:28 | 22.32879 | 113.95034 | 1545 ft | 147 kts | 69° |
| 2026-05-05 18:28 | 22.33221 | 113.96088 | 1803 ft | 157 kts | 76° |
| 2026-05-05 18:29 | 22.33436 | 113.97312 | 1955 ft | 174 kts | 81° |
| 2026-05-05 18:29 | 22.33655 | 113.98678 | 2168 ft | 191 kts | 80° |
| 2026-05-05 18:29 | 22.33817 | 114.00162 | 2376 ft | 209 kts | 89° |
| 2026-05-05 18:29 | 22.33616 | 114.01759 | 2691 ft | 221 kts | 107° |
| 2026-05-05 18:30 | 22.32930 | 114.03235 | 3186 ft | 226 kts | 125° |
| 2026-05-05 18:30 | 22.31800 | 114.04426 | 3738 ft | 230 kts | 143° |
| 2026-05-05 18:30 | 22.30443 | 114.05361 | 4257 ft | 233 kts | 148° |
| 2026-05-05 18:30 | 22.29042 | 114.06257 | 4794 ft | 235 kts | 148° |
| 2026-05-05 18:31 | 22.27629 | 114.07159 | 5348 ft | 237 kts | 149° |
| 2026-05-05 18:31 | 22.26206 | 114.08065 | 5904 ft | 239 kts | 151° |
| 2026-05-05 18:31 | 22.24643 | 114.08651 | 6419 ft | 240 kts | 174° |
| 2026-05-05 18:31 | 22.22952 | 114.08730 | 6821 ft | 250 kts | 180° |
| 2026-05-05 18:32 | 22.21156 | 114.08699 | 7078 ft | 265 kts | 181° |
| 2026-05-05 18:32 | 22.19273 | 114.08664 | 7457 ft | 275 kts | 181° |
| 2026-05-05 18:32 | 22.17354 | 114.08877 | 7970 ft | 281 kts | 163° |
| 2026-05-05 18:32 | 22.15666 | 114.09932 | 8492 ft | 286 kts | 135° |
| 2026-05-05 18:33 | 22.14487 | 114.11670 | 9031 ft | 290 kts | 123° |
| 2026-05-05 18:33 | 22.13376 | 114.13497 | 9556 ft | 294 kts | 124° |
| 2026-05-05 18:33 | 22.12250 | 114.15355 | 10092 ft | 298 kts | 123° |
| 2026-05-05 18:33 | 22.11123 | 114.17292 | 10376 ft | 312 kts | 122° |
| 2026-05-05 18:34 | 22.09969 | 114.19342 | 10606 ft | 327 kts | 122° |
| 2026-05-05 18:34 | 22.08780 | 114.21494 | 10830 ft | 341 kts | 122° |
| 2026-05-05 18:34 | 22.07552 | 114.23737 | 11063 ft | 354 kts | 121° |
| 2026-05-05 18:34 | 22.06283 | 114.26066 | 11272 ft | 366 kts | 121° |
| 2026-05-05 18:35 | 22.04977 | 114.28467 | 11551 ft | 375 kts | 121° |
| 2026-05-05 18:35 | 22.03648 | 114.30912 | 11962 ft | 380 kts | 121° |
| 2026-05-05 18:35 | 22.02761 | 114.32544 | 12268 ft | 382 kts | 121° |
| 2026-05-05 18:35 | 22.00953 | 114.35871 | 12845 ft | 387 kts | 121° |
| 2026-05-05 18:36 | 22.00051 | 114.37531 | 13142 ft | 388 kts | 121° |
| 2026-05-05 18:36 | 21.98679 | 114.40052 | 13587 ft | 391 kts | 121° |
| 2026-05-05 18:36 | 21.97300 | 114.42589 | 14027 ft | 393 kts | 121° |
| 2026-05-05 18:36 | 21.95912 | 114.45138 | 14432 ft | 396 kts | 121° |
| 2026-05-05 18:37 | 21.94513 | 114.47707 | 14821 ft | 399 kts | 121° |
| 2026-05-05 18:37 | 21.93106 | 114.50289 | 15210 ft | 401 kts | 121° |
| 2026-05-05 18:37 | 21.91972 | 114.52371 | 15516 ft | 403 kts | 121° |
| 2026-05-05 18:37 | 21.90530 | 114.55016 | 15921 ft | 405 kts | 121° |
| 2026-05-05 18:38 | 21.89094 | 114.57647 | 16281 ft | 408 kts | 121° |
| 2026-05-05 18:38 | 21.87652 | 114.60290 | 16643 ft | 411 kts | 121° |
| 2026-05-05 18:38 | 21.86201 | 114.62946 | 17025 ft | 413 kts | 121° |
| 2026-05-05 18:38 | 21.84758 | 114.65589 | 17373 ft | 416 kts | 121° |
| 2026-05-05 18:39 | 21.83287 | 114.68279 | 17725 ft | 418 kts | 121° |
| 2026-05-05 18:39 | 21.81809 | 114.70982 | 18065 ft | 420 kts | 121° |
| 2026-05-05 18:39 | 21.80319 | 114.73702 | 18394 ft | 423 kts | 121° |
| 2026-05-05 18:39 | 21.78821 | 114.76438 | 18717 ft | 425 kts | 121° |
| 2026-05-05 18:40 | 21.77316 | 114.79187 | 19055 ft | 427 kts | 121° |
| 2026-05-05 18:40 | 21.75801 | 114.81952 | 19381 ft | 430 kts | 121° |
| 2026-05-05 18:40 | 21.74238 | 114.84705 | 19691 ft | 432 kts | 124° |
| 2026-05-05 18:40 | 21.72519 | 114.87370 | 20015 ft | 433 kts | 127° |
| 2026-05-05 18:41 | 21.70707 | 114.89974 | 20319 ft | 436 kts | 128° |
| 2026-05-05 18:41 | 21.68847 | 114.92557 | 20633 ft | 438 kts | 129° |
| 2026-05-05 18:41 | 21.66966 | 114.95144 | 20957 ft | 440 kts | 129° |
| 2026-05-05 18:41 | 21.65079 | 114.97749 | 21290 ft | 442 kts | 129° |
| 2026-05-05 18:42 | 21.63194 | 115.00371 | 21599 ft | 444 kts | 128° |
| 2026-05-05 18:42 | 21.61334 | 115.02982 | 21899 ft | 447 kts | 128° |
| 2026-05-05 18:42 | 21.59439 | 115.05644 | 22207 ft | 449 kts | 128° |
| 2026-05-05 18:42 | 21.57540 | 115.08315 | 22510 ft | 451 kts | 128° |
| 2026-05-05 18:43 | 21.55631 | 115.11003 | 22789 ft | 454 kts | 128° |
| 2026-05-05 18:43 | 21.53583 | 115.13585 | 23071 ft | 454 kts | 136° |
| 2026-05-05 18:43 | 21.51189 | 115.15802 | 23373 ft | 455 kts | 143° |
| 2026-05-05 18:43 | 21.48646 | 115.17846 | 23654 ft | 456 kts | 146° |
| 2026-05-05 18:44 | 21.46042 | 115.19804 | 23925 ft | 458 kts | 147° |
| 2026-05-05 18:44 | 21.43396 | 115.21730 | 24201 ft | 460 kts | 148° |
| 2026-05-05 18:44 | 21.40732 | 115.23647 | 24489 ft | 462 kts | 148° |
| 2026-05-05 18:44 | 21.38056 | 115.25573 | 24777 ft | 465 kts | 148° |
| 2026-05-05 18:45 | 21.35362 | 115.27520 | 25077 ft | 467 kts | 148° |
| 2026-05-05 18:45 | 21.32665 | 115.29479 | 25392 ft | 469 kts | 148° |
| 2026-05-05 18:45 | 21.29996 | 115.31425 | 25713 ft | 471 kts | 147° |
| 2026-05-05 18:45 | 21.27276 | 115.33412 | 26024 ft | 474 kts | 147° |
| 2026-05-05 18:46 | 21.24548 | 115.35406 | 26351 ft | 476 kts | 147° |
| 2026-05-05 18:46 | 21.21805 | 115.37415 | 26653 ft | 478 kts | 147° |
| 2026-05-05 18:46 | 21.19048 | 115.39429 | 26943 ft | 481 kts | 148° |
| 2026-05-05 18:46 | 21.16279 | 115.41450 | 27271 ft | 483 kts | 148° |
| 2026-05-05 18:47 | 21.13490 | 115.43484 | 27576 ft | 485 kts | 148° |
| 2026-05-05 18:47 | 21.10696 | 115.45521 | 27883 ft | 487 kts | 148° |